sensor_id;sensor_type;location;lat;lon;timestamp;temperature;humidity
5027;DHT22;2532;52.480;13.354;2022-08-14T00:00:09;26.00;77.80
5027;DHT22;2532;52.480;13.354;2022-08-14T00:02:36;26.00;78.10
5027;DHT22;2532;52.480;13.354;2022-08-14T00:05:04;25.90;78.30
5027;DHT22;2532;52.480;13.354;2022-08-14T00:07:31;25.90;78.50
5027;DHT22;2532;52.480;13.354;2022-08-14T00:10:02;25.80;78.70
5027;DHT22;2532;52.480;13.354;2022-08-14T00:12:30;25.90;78.80
5027;DHT22;2532;52.480;13.354;2022-08-14T00:14:57;25.80;78.90
5027;DHT22;2532;52.480;13.354;2022-08-14T00:17:24;25.80;79.10
5027;DHT22;2532;52.480;13.354;2022-08-14T00:19:51;25.80;79.20
5027;DHT22;2532;52.480;13.354;2022-08-14T00:22:18;25.80;79.40
5027;DHT22;2532;52.480;13.354;2022-08-14T00:24:45;25.70;79.40
5027;DHT22;2532;52.480;13.354;2022-08-14T00:27:14;25.70;79.50
5027;DHT22;2532;52.480;13.354;2022-08-14T00:29:40;25.70;79.70
5027;DHT22;2532;52.480;13.354;2022-08-14T00:32:07;25.60;79.90
5027;DHT22;2532;52.480;13.354;2022-08-14T00:34:34;25.60;80.10
5027;DHT22;2532;52.480;13.354;2022-08-14T00:37:01;25.60;80.40
5027;DHT22;2532;52.480;13.354;2022-08-14T00:39:30;25.50;80.60
5027;DHT22;2532;52.480;13.354;2022-08-14T00:41:57;25.50;80.90
5027;DHT22;2532;52.480;13.354;2022-08-14T00:44:25;25.50;81.10
5027;DHT22;2532;52.480;13.354;2022-08-14T00:46:53;25.50;81.20
5027;DHT22;2532;52.480;13.354;2022-08-14T00:49:19;25.50;81.40
5027;DHT22;2532;52.480;13.354;2022-08-14T00:51:47;25.40;81.50
5027;DHT22;2532;52.480;13.354;2022-08-14T00:54:14;25.50;81.70
5027;DHT22;2532;52.480;13.354;2022-08-14T00:56:42;25.40;81.80
5027;DHT22;2532;52.480;13.354;2022-08-14T00:59:08;25.40;82.10
5027;DHT22;2532;52.480;13.354;2022-08-14T01:01:37;25.40;82.30
5027;DHT22;2532;52.480;13.354;2022-08-14T01:04:04;25.30;82.40
5027;DHT22;2532;52.480;13.354;2022-08-14T01:06:31;25.30;82.50
5027;DHT22;2532;52.480;13.354;2022-08-14T01:08:59;25.30;82.60
5027;DHT22;2532;52.480;13.354;2022-08-14T01:11:27;25.30;82.70
5027;DHT22;2532;52.480;13.354;2022-08-14T01:13:54;25.30;82.90
5027;DHT22;2532;52.480;13.354;2022-08-14T01:16:27;25.30;83.10
5027;DHT22;2532;52.480;13.354;2022-08-14T01:18:56;25.30;83.20
5027;DHT22;2532;52.480;13.354;2022-08-14T01:21:42;25.20;83.30
5027;DHT22;2532;52.480;13.354;2022-08-14T01:24:11;25.30;83.50
5027;DHT22;2532;52.480;13.354;2022-08-14T01:26:40;25.30;83.50
5027;DHT22;2532;52.480;13.354;2022-08-14T01:29:08;25.20;83.60
5027;DHT22;2532;52.480;13.354;2022-08-14T01:31:36;25.20;83.80
5027;DHT22;2532;52.480;13.354;2022-08-14T01:34:05;25.20;84.00
5027;DHT22;2532;52.480;13.354;2022-08-14T01:36:32;25.10;84.20
5027;DHT22;2532;52.480;13.354;2022-08-14T01:39:05;25.10;84.30
5027;DHT22;2532;52.480;13.354;2022-08-14T01:41:34;25.00;84.40
5027;DHT22;2532;52.480;13.354;2022-08-14T01:44:04;25.00;84.60
5027;DHT22;2532;52.480;13.354;2022-08-14T01:46:33;25.00;84.60
5027;DHT22;2532;52.480;13.354;2022-08-14T01:49:01;25.00;84.70
5027;DHT22;2532;52.480;13.354;2022-08-14T01:51:29;25.00;84.90
5027;DHT22;2532;52.480;13.354;2022-08-14T01:53:58;25.00;84.90
5027;DHT22;2532;52.480;13.354;2022-08-14T01:56:29;25.00;85.00
5027;DHT22;2532;52.480;13.354;2022-08-14T01:59:03;25.00;85.10
5027;DHT22;2532;52.480;13.354;2022-08-14T02:01:30;25.00;85.20
5027;DHT22;2532;52.480;13.354;2022-08-14T02:03:57;24.90;85.30
5027;DHT22;2532;52.480;13.354;2022-08-14T02:06:25;24.90;85.40
5027;DHT22;2532;52.480;13.354;2022-08-14T02:08:52;24.90;85.60
5027;DHT22;2532;52.480;13.354;2022-08-14T02:11:23;24.90;85.60
5027;DHT22;2532;52.480;13.354;2022-08-14T02:13:55;24.90;85.80
5027;DHT22;2532;52.480;13.354;2022-08-14T02:16:26;24.90;85.80
5027;DHT22;2532;52.480;13.354;2022-08-14T02:18:55;24.80;85.80
5027;DHT22;2532;52.480;13.354;2022-08-14T02:21:25;24.80;85.90
5027;DHT22;2532;52.480;13.354;2022-08-14T02:23:53;24.80;86.00
5027;DHT22;2532;52.480;13.354;2022-08-14T02:26:22;24.90;86.10
5027;DHT22;2532;52.480;13.354;2022-08-14T02:28:53;24.90;86.10
5027;DHT22;2532;52.480;13.354;2022-08-14T02:31:20;24.80;86.10
5027;DHT22;2532;52.480;13.354;2022-08-14T02:33:47;24.90;86.20
5027;DHT22;2532;52.480;13.354;2022-08-14T02:36:14;24.90;86.20
5027;DHT22;2532;52.480;13.354;2022-08-14T02:38:42;24.90;86.30
5027;DHT22;2532;52.480;13.354;2022-08-14T02:41:11;24.90;86.40
5027;DHT22;2532;52.480;13.354;2022-08-14T02:43:39;24.90;86.50
5027;DHT22;2532;52.480;13.354;2022-08-14T02:46:09;24.80;86.40
5027;DHT22;2532;52.480;13.354;2022-08-14T02:48:38;24.80;86.60
5027;DHT22;2532;52.480;13.354;2022-08-14T02:51:07;24.80;86.70
5027;DHT22;2532;52.480;13.354;2022-08-14T02:53:35;24.80;86.80
5027;DHT22;2532;52.480;13.354;2022-08-14T02:56:04;24.80;86.90
5027;DHT22;2532;52.480;13.354;2022-08-14T02:58:32;24.80;86.90
5027;DHT22;2532;52.480;13.354;2022-08-14T03:01:02;24.90;87.10
5027;DHT22;2532;52.480;13.354;2022-08-14T03:03:31;24.80;87.00
5027;DHT22;2532;52.480;13.354;2022-08-14T03:05:58;24.90;87.20
5027;DHT22;2532;52.480;13.354;2022-08-14T03:08:25;24.90;87.20
5027;DHT22;2532;52.480;13.354;2022-08-14T03:10:56;24.80;87.20
5027;DHT22;2532;52.480;13.354;2022-08-14T03:13:24;24.90;87.40
5027;DHT22;2532;52.480;13.354;2022-08-14T03:15:52;24.90;87.50
5027;DHT22;2532;52.480;13.354;2022-08-14T03:18:20;24.80;87.50
5027;DHT22;2532;52.480;13.354;2022-08-14T03:20:50;24.90;87.70
5027;DHT22;2532;52.480;13.354;2022-08-14T03:23:17;24.90;87.60
5027;DHT22;2532;52.480;13.354;2022-08-14T03:25:44;24.90;87.70
5027;DHT22;2532;52.480;13.354;2022-08-14T03:28:12;24.80;87.60
5027;DHT22;2532;52.480;13.354;2022-08-14T03:30:39;24.80;87.80
5027;DHT22;2532;52.480;13.354;2022-08-14T03:33:09;24.90;87.80
5027;DHT22;2532;52.480;13.354;2022-08-14T03:35:38;24.90;87.90
5027;DHT22;2532;52.480;13.354;2022-08-14T03:38:08;24.80;87.80
5027;DHT22;2532;52.480;13.354;2022-08-14T03:40:35;24.80;87.80
5027;DHT22;2532;52.480;13.354;2022-08-14T03:43:04;24.90;87.80
5027;DHT22;2532;52.480;13.354;2022-08-14T03:45:31;24.80;87.80
5027;DHT22;2532;52.480;13.354;2022-08-14T03:48:00;24.80;88.00
5027;DHT22;2532;52.480;13.354;2022-08-14T03:50:29;24.80;88.10
5027;DHT22;2532;52.480;13.354;2022-08-14T03:52:57;24.80;88.20
5027;DHT22;2532;52.480;13.354;2022-08-14T03:55:27;24.70;88.30
5027;DHT22;2532;52.480;13.354;2022-08-14T03:57:54;24.70;88.60
5027;DHT22;2532;52.480;13.354;2022-08-14T04:00:21;24.70;88.80
5027;DHT22;2532;52.480;13.354;2022-08-14T04:02:48;24.60;88.90
5027;DHT22;2532;52.480;13.354;2022-08-14T04:05:15;24.60;89.00
5027;DHT22;2532;52.480;13.354;2022-08-14T04:07:41;24.60;89.20
5027;DHT22;2532;52.480;13.354;2022-08-14T04:10:08;24.50;89.40
5027;DHT22;2532;52.480;13.354;2022-08-14T04:12:36;24.40;89.50
5027;DHT22;2532;52.480;13.354;2022-08-14T04:15:05;24.40;89.80
5027;DHT22;2532;52.480;13.354;2022-08-14T04:17:32;24.30;90.00
5027;DHT22;2532;52.480;13.354;2022-08-14T04:19:59;24.20;90.20
5027;DHT22;2532;52.480;13.354;2022-08-14T04:22:28;24.20;90.20
5027;DHT22;2532;52.480;13.354;2022-08-14T04:24:56;24.20;90.40
5027;DHT22;2532;52.480;13.354;2022-08-14T04:27:24;24.20;90.40
5027;DHT22;2532;52.480;13.354;2022-08-14T04:29:53;24.20;90.50
5027;DHT22;2532;52.480;13.354;2022-08-14T04:32:21;24.20;90.40
5027;DHT22;2532;52.480;13.354;2022-08-14T04:34:51;24.30;90.40
5027;DHT22;2532;52.480;13.354;2022-08-14T04:37:20;24.30;90.40
5027;DHT22;2532;52.480;13.354;2022-08-14T04:40:06;24.40;90.40
5027;DHT22;2532;52.480;13.354;2022-08-14T04:42:50;24.40;90.40
5027;DHT22;2532;52.480;13.354;2022-08-14T04:45:37;24.40;90.40
5027;DHT22;2532;52.480;13.354;2022-08-14T04:48:06;24.50;90.40
5027;DHT22;2532;52.480;13.354;2022-08-14T04:50:38;24.50;90.30
5027;DHT22;2532;52.480;13.354;2022-08-14T04:53:05;24.50;90.30
5027;DHT22;2532;52.480;13.354;2022-08-14T04:55:32;24.40;90.30
5027;DHT22;2532;52.480;13.354;2022-08-14T04:57:59;24.50;90.30
5027;DHT22;2532;52.480;13.354;2022-08-14T05:00:26;24.50;90.30
5027;DHT22;2532;52.480;13.354;2022-08-14T05:02:54;24.60;90.30
5027;DHT22;2532;52.480;13.354;2022-08-14T05:05:22;24.60;90.30
5027;DHT22;2532;52.480;13.354;2022-08-14T05:07:49;24.60;90.20
5027;DHT22;2532;52.480;13.354;2022-08-14T05:10:16;24.70;90.10
5027;DHT22;2532;52.480;13.354;2022-08-14T05:12:50;24.70;90.10
5027;DHT22;2532;52.480;13.354;2022-08-14T05:15:18;24.70;90.10
5027;DHT22;2532;52.480;13.354;2022-08-14T05:17:45;24.70;90.10
5027;DHT22;2532;52.480;13.354;2022-08-14T05:20:14;24.70;90.00
5027;DHT22;2532;52.480;13.354;2022-08-14T05:22:41;24.70;90.00
5027;DHT22;2532;52.480;13.354;2022-08-14T05:25:10;24.70;90.00
5027;DHT22;2532;52.480;13.354;2022-08-14T05:27:37;24.80;90.10
5027;DHT22;2532;52.480;13.354;2022-08-14T05:30:05;24.80;90.00
5027;DHT22;2532;52.480;13.354;2022-08-14T05:32:32;24.80;89.90
5027;DHT22;2532;52.480;13.354;2022-08-14T05:34:59;24.90;89.80
5027;DHT22;2532;52.480;13.354;2022-08-14T05:37:27;24.90;89.80
5027;DHT22;2532;52.480;13.354;2022-08-14T05:39:55;24.90;89.60
5027;DHT22;2532;52.480;13.354;2022-08-14T05:42:22;25.00;89.40
5027;DHT22;2532;52.480;13.354;2022-08-14T05:44:49;25.00;89.40
5027;DHT22;2532;52.480;13.354;2022-08-14T05:47:16;25.00;89.10
5027;DHT22;2532;52.480;13.354;2022-08-14T05:49:42;25.10;89.00
5027;DHT22;2532;52.480;13.354;2022-08-14T05:52:10;25.10;88.60
5027;DHT22;2532;52.480;13.354;2022-08-14T05:54:38;25.20;89.20
5027;DHT22;2532;52.480;13.354;2022-08-14T05:57:05;25.30;88.60
5027;DHT22;2532;52.480;13.354;2022-08-14T05:59:32;25.40;88.30
5027;DHT22;2532;52.480;13.354;2022-08-14T06:01:59;25.40;87.60
5027;DHT22;2532;52.480;13.354;2022-08-14T06:04:26;25.50;87.40
5027;DHT22;2532;52.480;13.354;2022-08-14T06:06:53;25.60;87.20
5027;DHT22;2532;52.480;13.354;2022-08-14T06:09:20;25.60;87.40
5027;DHT22;2532;52.480;13.354;2022-08-14T06:11:48;25.70;86.50
5027;DHT22;2532;52.480;13.354;2022-08-14T06:14:16;25.80;86.50
5027;DHT22;2532;52.480;13.354;2022-08-14T06:16:43;25.90;86.10
5027;DHT22;2532;52.480;13.354;2022-08-14T06:19:11;26.00;85.80
5027;DHT22;2532;52.480;13.354;2022-08-14T06:21:38;26.10;85.70
5027;DHT22;2532;52.480;13.354;2022-08-14T06:24:06;26.10;85.00
5027;DHT22;2532;52.480;13.354;2022-08-14T06:26:33;26.20;84.70
5027;DHT22;2532;52.480;13.354;2022-08-14T06:29:01;26.20;84.60
5027;DHT22;2532;52.480;13.354;2022-08-14T06:31:28;26.20;84.50
5027;DHT22;2532;52.480;13.354;2022-08-14T06:33:55;26.20;84.40
5027;DHT22;2532;52.480;13.354;2022-08-14T06:36:22;26.10;84.40
5027;DHT22;2532;52.480;13.354;2022-08-14T06:38:50;26.10;84.60
5027;DHT22;2532;52.480;13.354;2022-08-14T06:41:17;26.10;84.60
5027;DHT22;2532;52.480;13.354;2022-08-14T06:43:44;26.10;84.60
5027;DHT22;2532;52.480;13.354;2022-08-14T06:46:12;26.10;84.70
5027;DHT22;2532;52.480;13.354;2022-08-14T06:48:39;26.10;84.70
5027;DHT22;2532;52.480;13.354;2022-08-14T06:51:06;26.20;84.80
5027;DHT22;2532;52.480;13.354;2022-08-14T06:53:33;26.20;84.40
5027;DHT22;2532;52.480;13.354;2022-08-14T06:55:59;26.20;84.50
5027;DHT22;2532;52.480;13.354;2022-08-14T06:58:26;26.20;84.40
5027;DHT22;2532;52.480;13.354;2022-08-14T07:00:53;26.20;84.90
5027;DHT22;2532;52.480;13.354;2022-08-14T07:03:39;26.40;84.80
5027;DHT22;2532;52.480;13.354;2022-08-14T07:06:23;26.50;83.20
5027;DHT22;2532;52.480;13.354;2022-08-14T07:08:50;26.50;83.00
5027;DHT22;2532;52.480;13.354;2022-08-14T07:11:17;26.50;83.10
5027;DHT22;2532;52.480;13.354;2022-08-14T07:13:44;26.60;83.00
5027;DHT22;2532;52.480;13.354;2022-08-14T07:16:10;26.60;82.80
5027;DHT22;2532;52.480;13.354;2022-08-14T07:18:39;26.70;82.70
5027;DHT22;2532;52.480;13.354;2022-08-14T07:21:07;26.70;82.50
5027;DHT22;2532;52.480;13.354;2022-08-14T07:23:34;26.80;82.30
5027;DHT22;2532;52.480;13.354;2022-08-14T07:26:02;26.80;82.30
5027;DHT22;2532;52.480;13.354;2022-08-14T07:28:31;26.80;82.30
5027;DHT22;2532;52.480;13.354;2022-08-14T07:31:00;26.90;82.20
5027;DHT22;2532;52.480;13.354;2022-08-14T07:33:29;26.90;82.20
5027;DHT22;2532;52.480;13.354;2022-08-14T07:36:01;26.90;82.00
5027;DHT22;2532;52.480;13.354;2022-08-14T07:38:28;27.00;82.20
5027;DHT22;2532;52.480;13.354;2022-08-14T07:40:55;27.10;82.10
5027;DHT22;2532;52.480;13.354;2022-08-14T07:43:24;27.10;82.00
5027;DHT22;2532;52.480;13.354;2022-08-14T07:45:51;27.10;81.70
5027;DHT22;2532;52.480;13.354;2022-08-14T07:48:18;27.20;81.80
5027;DHT22;2532;52.480;13.354;2022-08-14T07:50:45;27.30;81.00
5027;DHT22;2532;52.480;13.354;2022-08-14T07:53:16;27.30;80.30
5027;DHT22;2532;52.480;13.354;2022-08-14T07:55:44;27.30;80.30
5027;DHT22;2532;52.480;13.354;2022-08-14T07:58:12;27.40;80.10
5027;DHT22;2532;52.480;13.354;2022-08-14T08:00:39;27.50;79.70
5027;DHT22;2532;52.480;13.354;2022-08-14T08:03:07;27.50;79.30
5027;DHT22;2532;52.480;13.354;2022-08-14T08:05:36;27.60;78.70
5027;DHT22;2532;52.480;13.354;2022-08-14T08:08:04;27.60;78.60
5027;DHT22;2532;52.480;13.354;2022-08-14T08:10:33;27.60;77.70
5027;DHT22;2532;52.480;13.354;2022-08-14T08:13:04;27.70;77.60
5027;DHT22;2532;52.480;13.354;2022-08-14T08:15:35;27.80;77.60
5027;DHT22;2532;52.480;13.354;2022-08-14T08:18:04;27.90;76.80
5027;DHT22;2532;52.480;13.354;2022-08-14T08:20:33;28.00;76.30
5027;DHT22;2532;52.480;13.354;2022-08-14T08:23:02;28.00;76.10
5027;DHT22;2532;52.480;13.354;2022-08-14T08:25:31;28.10;75.80
5027;DHT22;2532;52.480;13.354;2022-08-14T08:28:01;28.10;75.40
5027;DHT22;2532;52.480;13.354;2022-08-14T08:30:30;28.20;75.10
5027;DHT22;2532;52.480;13.354;2022-08-14T08:32:59;28.20;75.70
5027;DHT22;2532;52.480;13.354;2022-08-14T08:35:28;28.30;74.90
5027;DHT22;2532;52.480;13.354;2022-08-14T08:38:02;28.40;74.40
5027;DHT22;2532;52.480;13.354;2022-08-14T08:40:31;28.40;74.30
5027;DHT22;2532;52.480;13.354;2022-08-14T08:43:03;28.60;74.10
5027;DHT22;2532;52.480;13.354;2022-08-14T08:45:31;28.70;73.60
5027;DHT22;2532;52.480;13.354;2022-08-14T08:47:59;28.80;73.30
5027;DHT22;2532;52.480;13.354;2022-08-14T08:50:29;28.80;72.80
5027;DHT22;2532;52.480;13.354;2022-08-14T08:52:58;28.90;72.10
5027;DHT22;2532;52.480;13.354;2022-08-14T08:55:28;29.00;71.50
5027;DHT22;2532;52.480;13.354;2022-08-14T08:57:57;29.00;71.40
5027;DHT22;2532;52.480;13.354;2022-08-14T09:00:26;29.10;71.00
5027;DHT22;2532;52.480;13.354;2022-08-14T09:03:02;29.20;70.90
5027;DHT22;2532;52.480;13.354;2022-08-14T09:05:31;29.20;70.70
5027;DHT22;2532;52.480;13.354;2022-08-14T09:08:16;29.30;70.70
5027;DHT22;2532;52.480;13.354;2022-08-14T09:10:43;29.30;69.70
5027;DHT22;2532;52.480;13.354;2022-08-14T09:13:11;29.40;70.00
5027;DHT22;2532;52.480;13.354;2022-08-14T09:15:41;29.40;70.10
5027;DHT22;2532;52.480;13.354;2022-08-14T09:18:09;29.40;69.80
5027;DHT22;2532;52.480;13.354;2022-08-14T09:20:38;29.50;69.30
5027;DHT22;2532;52.480;13.354;2022-08-14T09:23:06;29.50;69.40
5027;DHT22;2532;52.480;13.354;2022-08-14T09:25:33;29.50;69.00
5027;DHT22;2532;52.480;13.354;2022-08-14T09:28:01;29.50;68.80
5027;DHT22;2532;52.480;13.354;2022-08-14T09:30:30;29.60;68.10
5027;DHT22;2532;52.480;13.354;2022-08-14T09:33:07;29.60;67.20
5027;DHT22;2532;52.480;13.354;2022-08-14T09:35:46;29.60;67.50
5027;DHT22;2532;52.480;13.354;2022-08-14T09:38:21;29.70;67.30
5027;DHT22;2532;52.480;13.354;2022-08-14T09:40:57;29.70;67.10
5027;DHT22;2532;52.480;13.354;2022-08-14T09:43:30;29.80;65.70
5027;DHT22;2532;52.480;13.354;2022-08-14T09:45:58;29.90;64.20
5027;DHT22;2532;52.480;13.354;2022-08-14T09:48:27;29.90;64.30
5027;DHT22;2532;52.480;13.354;2022-08-14T09:50:55;29.80;64.30
5027;DHT22;2532;52.480;13.354;2022-08-14T09:53:38;29.90;64.30
5027;DHT22;2532;52.480;13.354;2022-08-14T09:56:07;29.90;64.80
5027;DHT22;2532;52.480;13.354;2022-08-14T09:58:39;30.00;64.80
5027;DHT22;2532;52.480;13.354;2022-08-14T10:01:09;30.00;64.50
5027;DHT22;2532;52.480;13.354;2022-08-14T10:03:48;30.00;64.30
5027;DHT22;2532;52.480;13.354;2022-08-14T10:06:19;30.20;64.40
5027;DHT22;2532;52.480;13.354;2022-08-14T10:08:50;30.20;64.30
5027;DHT22;2532;52.480;13.354;2022-08-14T10:11:22;30.30;63.70
5027;DHT22;2532;52.480;13.354;2022-08-14T10:13:52;30.40;63.20
5027;DHT22;2532;52.480;13.354;2022-08-14T10:16:20;30.50;63.20
5027;DHT22;2532;52.480;13.354;2022-08-14T10:19:06;30.60;63.10
5027;DHT22;2532;52.480;13.354;2022-08-14T10:21:33;30.80;61.60
5027;DHT22;2532;52.480;13.354;2022-08-14T10:24:00;30.90;61.90
5027;DHT22;2532;52.480;13.354;2022-08-14T10:26:28;31.00;61.20
5027;DHT22;2532;52.480;13.354;2022-08-14T10:29:04;31.10;59.70
5027;DHT22;2532;52.480;13.354;2022-08-14T10:31:32;31.20;59.60
5027;DHT22;2532;52.480;13.354;2022-08-14T10:34:03;31.30;59.90
5027;DHT22;2532;52.480;13.354;2022-08-14T10:36:31;31.40;58.90
5027;DHT22;2532;52.480;13.354;2022-08-14T10:39:01;31.60;57.70
5027;DHT22;2532;52.480;13.354;2022-08-14T10:41:37;31.70;56.00
5027;DHT22;2532;52.480;13.354;2022-08-14T10:44:07;32.00;56.20
5027;DHT22;2532;52.480;13.354;2022-08-14T10:46:43;32.00;55.60
5027;DHT22;2532;52.480;13.354;2022-08-14T10:49:19;32.20;54.90
5027;DHT22;2532;52.480;13.354;2022-08-14T10:51:57;32.20;53.90
5027;DHT22;2532;52.480;13.354;2022-08-14T10:54:39;32.20;54.20
5027;DHT22;2532;52.480;13.354;2022-08-14T10:57:11;32.10;53.40
5027;DHT22;2532;52.480;13.354;2022-08-14T10:59:42;32.00;53.40
5027;DHT22;2532;52.480;13.354;2022-08-14T11:02:17;31.90;53.60
5027;DHT22;2532;52.480;13.354;2022-08-14T11:04:56;31.80;53.60
5027;DHT22;2532;52.480;13.354;2022-08-14T11:07:23;31.80;53.70
5027;DHT22;2532;52.480;13.354;2022-08-14T11:09:53;31.80;53.10
5027;DHT22;2532;52.480;13.354;2022-08-14T11:12:22;31.80;52.90
5027;DHT22;2532;52.480;13.354;2022-08-14T11:14:51;31.80;52.70
5027;DHT22;2532;52.480;13.354;2022-08-14T11:17:19;31.80;53.00
5027;DHT22;2532;52.480;13.354;2022-08-14T11:19:48;31.80;52.70
5027;DHT22;2532;52.480;13.354;2022-08-14T11:22:16;31.80;52.50
5027;DHT22;2532;52.480;13.354;2022-08-14T11:24:44;31.90;52.30
5027;DHT22;2532;52.480;13.354;2022-08-14T11:27:13;31.90;51.60
5027;DHT22;2532;52.480;13.354;2022-08-14T11:29:42;31.90;52.30
5027;DHT22;2532;52.480;13.354;2022-08-14T11:32:09;31.90;52.50
5027;DHT22;2532;52.480;13.354;2022-08-14T11:34:36;31.90;52.70
5027;DHT22;2532;52.480;13.354;2022-08-14T11:37:09;31.90;52.80
5027;DHT22;2532;52.480;13.354;2022-08-14T11:39:36;31.90;52.90
5027;DHT22;2532;52.480;13.354;2022-08-14T11:42:03;32.00;53.20
5027;DHT22;2532;52.480;13.354;2022-08-14T11:44:30;32.00;53.40
5027;DHT22;2532;52.480;13.354;2022-08-14T11:46:57;32.20;52.90
5027;DHT22;2532;52.480;13.354;2022-08-14T11:49:27;32.20;52.10
5027;DHT22;2532;52.480;13.354;2022-08-14T11:51:55;32.20;50.80
5027;DHT22;2532;52.480;13.354;2022-08-14T11:54:23;32.30;51.50
5027;DHT22;2532;52.480;13.354;2022-08-14T11:56:50;32.30;51.10
5027;DHT22;2532;52.480;13.354;2022-08-14T11:59:18;32.40;50.60
5027;DHT22;2532;52.480;13.354;2022-08-14T12:01:47;32.50;48.60
5027;DHT22;2532;52.480;13.354;2022-08-14T12:04:15;32.60;47.90
5027;DHT22;2532;52.480;13.354;2022-08-14T12:06:44;32.70;47.50
5027;DHT22;2532;52.480;13.354;2022-08-14T12:09:13;32.80;46.20
5027;DHT22;2532;52.480;13.354;2022-08-14T12:11:42;32.70;47.20
5027;DHT22;2532;52.480;13.354;2022-08-14T12:14:11;32.70;47.80
5027;DHT22;2532;52.480;13.354;2022-08-14T12:16:39;32.60;48.20
5027;DHT22;2532;52.480;13.354;2022-08-14T12:19:06;32.60;48.70
5027;DHT22;2532;52.480;13.354;2022-08-14T12:21:33;32.60;48.40
5027;DHT22;2532;52.480;13.354;2022-08-14T12:24:03;32.60;48.60
5027;DHT22;2532;52.480;13.354;2022-08-14T12:26:30;32.70;48.70
5027;DHT22;2532;52.480;13.354;2022-08-14T12:29:07;32.70;48.90
5027;DHT22;2532;52.480;13.354;2022-08-14T12:31:35;32.60;48.70
5027;DHT22;2532;52.480;13.354;2022-08-14T12:34:04;32.50;48.90
5027;DHT22;2532;52.480;13.354;2022-08-14T12:36:32;32.60;48.90
5027;DHT22;2532;52.480;13.354;2022-08-14T12:39:02;32.60;49.00
5027;DHT22;2532;52.480;13.354;2022-08-14T12:41:30;32.70;48.40
5027;DHT22;2532;52.480;13.354;2022-08-14T12:44:03;32.70;48.60
5027;DHT22;2532;52.480;13.354;2022-08-14T12:46:33;32.80;48.70
5027;DHT22;2532;52.480;13.354;2022-08-14T12:49:07;32.90;48.50
5027;DHT22;2532;52.480;13.354;2022-08-14T12:51:34;32.80;48.70
5027;DHT22;2532;52.480;13.354;2022-08-14T12:54:12;32.80;49.00
5027;DHT22;2532;52.480;13.354;2022-08-14T12:56:40;32.90;49.10
5027;DHT22;2532;52.480;13.354;2022-08-14T12:59:07;32.90;49.30
5027;DHT22;2532;52.480;13.354;2022-08-14T13:01:35;33.00;49.30
5027;DHT22;2532;52.480;13.354;2022-08-14T13:04:06;33.00;48.50
5027;DHT22;2532;52.480;13.354;2022-08-14T13:06:34;33.20;48.00
5027;DHT22;2532;52.480;13.354;2022-08-14T13:09:01;33.40;47.80
5027;DHT22;2532;52.480;13.354;2022-08-14T13:11:33;33.40;47.70
5027;DHT22;2532;52.480;13.354;2022-08-14T13:14:02;33.50;47.70
5027;DHT22;2532;52.480;13.354;2022-08-14T13:16:29;33.60;46.60
5027;DHT22;2532;52.480;13.354;2022-08-14T13:18:58;33.60;46.30
5027;DHT22;2532;52.480;13.354;2022-08-14T13:21:26;33.70;46.30
5027;DHT22;2532;52.480;13.354;2022-08-14T13:23:56;33.70;45.90
5027;DHT22;2532;52.480;13.354;2022-08-14T13:26:23;33.70;44.90
5027;DHT22;2532;52.480;13.354;2022-08-14T13:28:51;33.70;44.70
5027;DHT22;2532;52.480;13.354;2022-08-14T13:31:22;33.70;44.40
5027;DHT22;2532;52.480;13.354;2022-08-14T13:33:49;33.80;44.70
5027;DHT22;2532;52.480;13.354;2022-08-14T13:36:17;33.80;44.90
5027;DHT22;2532;52.480;13.354;2022-08-14T13:38:46;33.80;45.10
5027;DHT22;2532;52.480;13.354;2022-08-14T13:41:14;34.00;45.60
5027;DHT22;2532;52.480;13.354;2022-08-14T13:43:48;34.10;44.70
5027;DHT22;2532;52.480;13.354;2022-08-14T13:46:15;34.20;45.00
5027;DHT22;2532;52.480;13.354;2022-08-14T13:48:43;34.40;45.40
5027;DHT22;2532;52.480;13.354;2022-08-14T13:51:11;34.40;44.10
5027;DHT22;2532;52.480;13.354;2022-08-14T13:53:44;34.50;43.80
5027;DHT22;2532;52.480;13.354;2022-08-14T13:56:13;34.40;43.30
5027;DHT22;2532;52.480;13.354;2022-08-14T13:58:41;34.40;43.20
5027;DHT22;2532;52.480;13.354;2022-08-14T14:01:10;34.40;43.40
5027;DHT22;2532;52.480;13.354;2022-08-14T14:03:38;34.40;43.80
5027;DHT22;2532;52.480;13.354;2022-08-14T14:06:10;34.50;42.50
5027;DHT22;2532;52.480;13.354;2022-08-14T14:08:44;34.60;42.50
5027;DHT22;2532;52.480;13.354;2022-08-14T14:11:12;34.70;41.40
5027;DHT22;2532;52.480;13.354;2022-08-14T14:13:40;34.80;41.80
5027;DHT22;2532;52.480;13.354;2022-08-14T14:16:08;34.90;41.90
5027;DHT22;2532;52.480;13.354;2022-08-14T14:18:36;35.00;41.90
5027;DHT22;2532;52.480;13.354;2022-08-14T14:21:04;35.10;42.30
5027;DHT22;2532;52.480;13.354;2022-08-14T14:23:32;35.20;42.00
5027;DHT22;2532;52.480;13.354;2022-08-14T14:26:01;35.30;41.10
5027;DHT22;2532;52.480;13.354;2022-08-14T14:28:30;35.30;39.40
5027;DHT22;2532;52.480;13.354;2022-08-14T14:31:01;35.40;39.40
5027;DHT22;2532;52.480;13.354;2022-08-14T14:33:30;35.30;37.90
5027;DHT22;2532;52.480;13.354;2022-08-14T14:35:59;35.40;38.10
5027;DHT22;2532;52.480;13.354;2022-08-14T14:38:29;35.20;37.80
5027;DHT22;2532;52.480;13.354;2022-08-14T14:41:00;35.30;39.20
5027;DHT22;2532;52.480;13.354;2022-08-14T14:43:28;35.30;38.80
5027;DHT22;2532;52.480;13.354;2022-08-14T14:45:59;35.40;37.40
5027;DHT22;2532;52.480;13.354;2022-08-14T14:48:26;35.40;36.70
5027;DHT22;2532;52.480;13.354;2022-08-14T14:50:57;35.50;36.20
5027;DHT22;2532;52.480;13.354;2022-08-14T14:53:27;35.40;36.20
5027;DHT22;2532;52.480;13.354;2022-08-14T14:55:54;35.40;36.40
5027;DHT22;2532;52.480;13.354;2022-08-14T14:58:23;35.40;36.10
5027;DHT22;2532;52.480;13.354;2022-08-14T15:00:52;35.40;36.10
5027;DHT22;2532;52.480;13.354;2022-08-14T15:03:19;35.40;36.20
5027;DHT22;2532;52.480;13.354;2022-08-14T15:05:46;35.60;35.70
5027;DHT22;2532;52.480;13.354;2022-08-14T15:08:17;35.60;34.80
5027;DHT22;2532;52.480;13.354;2022-08-14T15:10:44;35.50;34.80
5027;DHT22;2532;52.480;13.354;2022-08-14T15:13:11;35.40;35.00
5027;DHT22;2532;52.480;13.354;2022-08-14T15:15:41;35.40;35.30
5027;DHT22;2532;52.480;13.354;2022-08-14T15:18:08;35.40;35.20
5027;DHT22;2532;52.480;13.354;2022-08-14T15:20:35;35.40;35.10
5027;DHT22;2532;52.480;13.354;2022-08-14T15:23:02;35.50;35.50
5027;DHT22;2532;52.480;13.354;2022-08-14T15:25:31;35.50;35.40
5027;DHT22;2532;52.480;13.354;2022-08-14T15:27:58;35.60;35.10
5027;DHT22;2532;52.480;13.354;2022-08-14T15:30:26;35.80;37.50
5027;DHT22;2532;52.480;13.354;2022-08-14T15:32:57;35.80;35.20
5027;DHT22;2532;52.480;13.354;2022-08-14T15:35:24;35.80;35.10
5027;DHT22;2532;52.480;13.354;2022-08-14T15:37:52;35.70;35.20
5027;DHT22;2532;52.480;13.354;2022-08-14T15:40:19;35.60;35.40
5027;DHT22;2532;52.480;13.354;2022-08-14T15:42:46;35.70;35.50
5027;DHT22;2532;52.480;13.354;2022-08-14T15:45:13;35.80;37.70
5027;DHT22;2532;52.480;13.354;2022-08-14T15:47:41;36.10;37.60
5027;DHT22;2532;52.480;13.354;2022-08-14T15:50:10;36.30;36.40
5027;DHT22;2532;52.480;13.354;2022-08-14T15:52:37;36.60;34.50
5027;DHT22;2532;52.480;13.354;2022-08-14T15:55:07;36.70;34.30